Time;durP1;ratioP1;P1;durP2;ratioP2;P2;SDS_P1;SDS_P2;PMS_P1;PMS_P2;Temp;Humidity;BMP_temperature;BMP_pressure;BME280_temperature;BME280_humidity;BME280_pressure;Samples;Min_cycle;Max_cycle;Signal;HPM_P1;HPM_P2
2021/09/20 00:03:38;;;;;;;12.02;4.93;;;;;;;7.54;67.66;99152.88;4965680;28;20065;-83
2021/09/20 00:06:24;;;;;;;10.70;5.30;;;;;;;7.16;67.66;99094.06;4976564;28;20550;-83
2021/09/20 00:09:11;;;;;;;10.55;4.47;;;;;;;7.19;67.50;99088.13;4961670;28;20058;-83
2021/09/20 00:12:07;;;;;;;10.40;5.28;;;;;;;7.58;67.98;99152.09;4982105;28;20055;-82
2021/09/20 00:15:30;;;;;;;9.93;4.65;;;;;;;7.59;67.64;99152.88;4963407;28;20064;-83
2021/09/20 00:18:45;;;;;;;9.70;4.68;;;;;;;7.09;67.87;99082.66;4970188;28;20131;-82
2021/09/20 00:21:24;;;;;;;10.85;4.95;;;;;;;7.66;67.39;99158.88;4973427;28;20050;-83
2021/09/20 00:24:10;;;;;;;10.77;4.70;;;;;;;7.31;67.48;99081.59;4961315;28;20431;-83
2021/09/20 00:26:38;;;;;;;12.27;5.35;;;;;;;7.62;67.50;99119.69;4973667;28;20062;-82
2021/09/20 00:29:26;;;;;;;11.35;5.00;;;;;;;7.29;67.54;99081.03;4974790;28;20507;-82
2021/09/20 00:32:08;;;;;;;10.35;5.15;;;;;;;7.26;67.48;99076.97;4984988;28;20137;-82
2021/09/20 00:34:55;;;;;;;;;;;;;;;;;;;;;
2021/09/20 00:37:35;;;;;;;11.23;5.13;;;;;;;7.46;67.69;99095.19;4983613;28;20093;-82
2021/09/20 00:40:31;;;;;;;11.60;5.28;;;;;;;7.60;67.90;99138.19;4963165;28;20078;-83
2021/09/20 00:43:21;;;;;;;10.63;4.93;;;;;;;7.28;67.90;99082.13;4977439;28;20058;-83
2021/09/20 00:45:51;;;;;;;12.30;4.90;;;;;;;7.08;67.88;99060.06;4974726;28;20054;-84
2021/09/20 00:48:21;;;;;;;12.10;4.90;;;;;;;7.30;67.92;99082.69;4968783;28;20058;-83
2021/09/20 00:50:56;;;;;;;9.50;4.85;;;;;;;7.07;68.25;99069.31;4963771;28;20093;-83
2021/09/20 00:53:38;;;;;;;11.45;5.22;;;;;;;7.52;67.89;99134.09;4960217;28;20086;-83
2021/09/20 00:56:15;;;;;;;10.20;4.60;;;;;;;7.15;67.71;99067.19;4975729;28;20062;-83
2021/09/20 00:58:59;;;;;;;;;;;;;;;7.67;67.65;99133.31;5005293;28;20084;-82
2021/09/20 01:01:32;;;;;;;10.68;5.00;;;;;;;7.22;67.26;99068.53;4991405;28;19925;-83
2021/09/20 01:04:04;;;;;;;11.75;5.47;;;;;;;7.58;67.59;99100.38;4989905;28;20081;-82
2021/09/20 01:06:34;;;;;;;9.43;4.47;;;;;;;7.48;67.58;99101.19;4945520;28;20138;-83
2021/09/20 01:09:06;;;;;;;10.48;4.90;;;;;;;7.14;67.82;99058.19;4972583;28;20070;-83
2021/09/20 01:11:41;;;;;;;9.65;4.85;;;;;;;7.11;67.78;99055.22;4942142;28;20058;-81
2021/09/20 01:14:14;;;;;;;8.93;4.28;;;;;;;7.14;67.91;99060.91;4972974;28;20089;-82
2021/09/20 01:16:43;;;;;;;10.98;4.93;;;;;;;7.30;68.10;99079.97;4932718;28;1220241;-82
2021/09/20 01:19:18;;;;;;;9.47;4.43;;;;;;;7.47;68.00;99121.31;4956763;28;20054;-82
2021/09/20 01:22:13;;;;;;;10.57;4.78;;;;;;;7.45;67.96;99095.47;4992050;28;20058;-83
2021/09/20 01:24:41;;;;;;;10.10;4.40;;;;;;;7.62;67.92;99117.78;4962497;28;20105;-75
2021/09/20 01:27:07;;;;;;;;;;;;;;;7.65;67.73;99128.13;4974870;28;20515;-77
2021/09/20 01:29:34;;;;;;;9.88;4.80;;;;;;;7.61;67.81;99128.94;4991937;28;19930;-76
2021/09/20 01:32:01;;;;;;;8.75;4.20;;;;;;;7.64;67.66;99109.34;4974257;28;20514;-76
2021/09/20 01:34:28;;;;;;;9.57;4.57;;;;;;;7.58;67.66;99108.56;4974651;28;20062;-77
2021/09/20 01:36:54;;;;;;;10.13;4.85;;;;;;;7.62;67.52;99106.09;4958139;28;20471;-76
2021/09/20 01:39:26;;;;;;;9.27;4.50;;;;;;;7.74;67.39;99117.50;4992361;28;20054;-75
2021/09/20 01:41:55;;;;;;;12.13;4.32;;;;;;;7.65;67.56;99113.72;4975206;28;20269;-75
2021/09/20 01:44:22;;;;;;;8.88;4.13;;;;;;;7.58;67.89;99105.84;4958690;28;20058;-76
2021/09/20 01:46:51;;;;;;;8.95;4.43;;;;;;;7.63;67.72;99108.53;4958629;28;20136;-75
2021/09/20 01:49:17;;;;;;;9.07;4.30;;;;;;;7.58;67.81;99097.66;4975008;28;20050;-75
2021/09/20 01:51:44;;;;;;;8.48;4.13;;;;;;;7.54;68.15;99112.09;4988901;28;20046;-75
2021/09/20 01:54:11;;;;;;;9.77;4.43;;;;;;;7.48;68.26;99106.63;4988143;28;20474;-73
2021/09/20 01:56:41;;;;;;;8.82;4.00;;;;;;;7.51;68.07;99097.09;4990266;28;20066;-73
2021/09/20 01:59:09;;;;;;;9.00;4.30;;;;;;;7.56;67.81;99097.09;4990481;28;20132;-73
2021/09/20 02:01:36;;;;;;;8.60;4.18;;;;;;;7.56;67.90;99099.81;4988660;28;20156;-75
2021/09/20 02:04:02;;;;;;;8.57;3.85;;;;;;;7.52;67.83;99091.41;4976360;28;20046;-75
2021/09/20 02:06:29;;;;;;;9.77;3.75;;;;;;;7.43;68.30;99100.38;5009800;28;20058;-74
2021/09/20 02:09:00;;;;;;;10.25;3.83;;;;;;;7.47;68.22;99107.72;5006482;28;20054;-75
2021/09/20 02:11:26;;;;;;;8.07;3.45;;;;;;;7.46;68.18;99097.13;4985125;28;20050;-74
2021/09/20 02:13:55;;;;;;;9.30;3.80;;;;;;;7.47;68.10;99104.19;4987562;28;20050;-73
2021/09/20 02:16:23;;;;;;;9.55;3.90;;;;;;;7.50;68.18;99101.75;4984214;28;21490;-73
2021/09/20 02:18:52;;;;;;;7.72;3.58;;;;;;;7.47;68.15;99090.59;4972000;28;20050;-73
2021/09/20 02:21:18;;;;;;;12.15;4.05;;;;;;;7.49;67.97;99085.69;4974064;28;20054;-75
2021/09/20 02:23:44;;;;;;;8.85;3.80;;;;;;;7.60;67.71;99103.66;4991849;28;20054;-75
2021/09/20 02:26:10;;;;;;;8.68;3.72;;;;;;;7.58;67.80;99096.84;4973260;28;20054;-74
2021/09/20 02:28:38;;;;;;;8.55;3.63;;;;;;;7.58;67.79;99105.84;4989380;28;20073;-75
2021/09/20 02:31:05;;;;;;;9.07;3.78;;;;;;;7.57;67.73;99098.75;4954079;28;20073;-75
2021/09/20 02:33:34;;;;;;;7.70;3.57;;;;;;;7.41;68.26;99092.47;4972619;28;20039;-74
2021/09/20 02:36:00;;;;;;;8.27;3.50;;;;;;;7.40;68.46;99088.13;4988974;28;20046;-75
2021/09/20 02:38:27;;;;;;;7.97;3.38;;;;;;;7.42;68.19;99085.94;4992017;28;20072;-76
2021/09/20 02:40:54;;;;;;;7.68;3.47;;;;;;;7.50;68.02;99096.31;4968999;28;20109;-76
2021/09/20 02:43:20;;;;;;;7.47;3.15;;;;;;;7.54;67.94;99096.56;4992384;28;20081;-76
2021/09/20 02:45:46;;;;;;;8.77;3.90;;;;;;;7.50;68.25;99099.03;4959415;28;20105;-76
2021/09/20 02:48:12;;;;;;;8.73;3.92;;;;;;;7.51;68.06;99083.50;4975732;28;20078;-79
2021/09/20 02:50:39;;;;;;;9.90;3.95;;;;;;;7.51;68.04;99103.38;4995611;28;20042;-75
2021/09/20 02:53:06;;;;;;;8.50;3.50;;;;;;;7.50;68.27;99096.31;4959198;28;20078;-75
2021/09/20 02:55:32;;;;;;;10.55;4.30;;;;;;;7.53;68.13;99089.47;4994852;28;20514;-74
2021/09/20 02:57:58;;;;;;;10.38;4.60;;;;;;;7.59;67.86;99099.31;4991610;28;20050;-75
2021/09/20 03:00:24;;;;;;;9.27;3.80;;;;;;;7.49;68.35;99107.44;4977259;28;20061;-76
2021/09/20 03:02:50;;;;;;;11.15;4.32;;;;;;;7.44;68.53;99100.09;4977358;28;20133;-75
2021/09/20 03:05:16;;;;;;;13.80;4.65;;;;;;;7.50;68.29;99095.47;4977059;28;20058;-75
2021/09/20 03:07:44;;;;;;;13.30;4.30;;;;;;;7.50;68.40;99096.31;4992501;28;20113;-75
2021/09/20 03:10:10;;;;;;;8.82;3.88;;;;;;;7.51;68.56;99099.81;4974926;28;20109;-75
2021/09/20 03:12:39;;;;;;;8.95;4.15;;;;;;;7.51;68.27;99111.53;4961550;28;20072;-75
2021/09/20 03:15:06;;;;;;;7.82;3.35;;;;;;;7.46;68.40;99102.56;4994408;28;20153;-76
2021/09/20 03:17:32;;;;;;;8.90;4.20;;;;;;;7.50;68.38;99109.91;4990492;28;20054;-75
2021/09/20 03:19:59;;;;;;;9.27;3.78;;;;;;;7.49;68.46;99105.56;4960488;28;20059;-75
2021/09/20 03:22:25;;;;;;;9.82;3.97;;;;;;;7.56;68.43;99107.97;4964698;28;20097;-75
2021/09/20 03:24:53;;;;;;;9.88;4.07;;;;;;;7.49;68.41;99119.16;4991599;28;20065;-76
2021/09/20 03:27:19;;;;;;;9.70;3.47;;;;;;;7.55;68.39;99116.44;4962238;28;20082;-75
2021/09/20 03:29:45;;;;;;;7.22;3.00;;;;;;;7.50;68.49;99104.47;4994344;28;20062;-75
2021/09/20 03:32:11;;;;;;;8.10;3.20;;;;;;;7.57;68.39;99108.81;4995166;28;20485;-75
2021/09/20 03:34:46;;;;;;;9.45;3.65;;;;;;;7.54;68.48;99102.00;4993892;28;20054;-74
2021/09/20 03:37:12;;;;;;;8.82;3.63;;;;;;;7.56;68.24;99096.31;4993584;28;20534;-75
2021/09/20 03:39:39;;;;;;;9.00;3.72;;;;;;;7.59;68.19;99093.03;4995973;28;20062;-75
2021/09/20 03:42:06;;;;;;;7.88;3.20;;;;;;;7.59;68.27;99101.19;4961260;28;20054;-75
2021/09/20 03:44:32;;;;;;;8.35;3.42;;;;;;;7.56;68.56;99099.81;4965745;28;20478;-77
2021/09/20 03:46:58;;;;;;;8.75;3.25;;;;;;;7.57;68.42;99098.75;4991284;28;20054;-77
2021/09/20 03:49:24;;;;;;;8.43;3.40;;;;;;;7.58;68.41;99091.41;4971462;28;20074;-76
2021/09/20 03:51:50;;;;;;;7.50;3.00;;;;;;;7.60;68.15;99094.66;4976234;28;20054;-76
2021/09/20 03:54:16;;;;;;;7.57;3.05;;;;;;;7.59;68.41;99082.16;4992960;28;20057;-76
2021/09/20 03:56:42;;;;;;;8.43;3.40;;;;;;;7.58;68.24;99094.13;4975163;28;20059;-76
2021/09/20 03:59:11;;;;;;;7.13;2.90;;;;;;;7.45;68.60;99084.59;4992808;28;20069;-76
2021/09/20 04:01:39;;;;;;;7.13;2.97;;;;;;;7.54;68.53;99098.47;4960142;28;20053;-75
2021/09/20 04:04:05;;;;;;;10.60;3.30;;;;;;;7.45;68.88;99104.44;4992188;28;20057;-76
2021/09/20 04:06:31;;;;;;;8.02;3.25;;;;;;;7.48;68.78;99101.19;4974120;28;20053;-75
2021/09/20 04:09:02;;;;;;;7.68;2.80;;;;;;;7.47;68.74;99098.75;4991439;28;20437;-76
2021/09/20 04:11:28;;;;;;;6.93;2.90;;;;;;;7.46;68.98;99105.28;4959523;28;20145;-76
2021/09/20 04:13:54;;;;;;;6.85;3.08;;;;;;;7.50;68.78;99117.25;4985051;28;20057;-76
2021/09/20 04:16:22;;;;;;;6.32;2.65;;;;;;;7.49;68.81;99094.69;4957836;28;20499;-76
2021/09/20 04:18:48;;;;;;;;;;;;;;;7.55;68.70;99108.28;4992024;28;20058;-76
2021/09/20 04:21:14;;;;;;;10.05;2.60;;;;;;;7.52;68.54;99091.41;4974954;28;19925;-75
2021/09/20 04:23:40;;;;;;;7.47;2.72;;;;;;;7.48;68.68;99092.22;4975613;28;20046;-78
2021/09/20 04:26:06;;;;;;;6.93;2.80;;;;;;;7.43;68.96;99098.47;4975591;28;20082;-76
2021/09/20 04:28:32;;;;;;;7.20;2.67;;;;;;;7.48;68.72;99095.75;4992768;28;20494;-77
2021/09/20 04:30:58;;;;;;;6.53;2.85;;;;;;;7.56;68.65;99113.41;4974365;28;20082;-76
2021/09/20 04:33:27;;;;;;;8.68;2.83;;;;;;;7.51;68.88;99102.53;4985816;28;20515;-76
2021/09/20 04:35:53;;;;;;;6.95;2.85;;;;;;;7.46;69.15;99100.63;4992148;28;20066;-76
2021/09/20 04:38:19;;;;;;;5.38;2.38;;;;;;;7.42;69.30;99115.06;4958300;28;20062;-75
2021/09/20 04:40:49;;;;;;;8.35;2.60;;;;;;;7.45;69.00;99106.38;4973741;28;20058;-77
2021/09/20 04:43:15;;;;;;;6.55;2.55;;;;;;;7.51;68.90;99116.16;4974655;28;20120;-77
2021/09/20 04:45:42;;;;;;;7.38;2.72;;;;;;;7.45;69.32;99120.75;4991825;28;20065;-74
2021/09/20 04:48:11;;;;;;;7.03;2.55;;;;;;;7.48;68.83;99105.81;4990163;28;20109;-76
2021/09/20 04:50:40;;;;;;;6.78;2.70;;;;;;;7.56;69.11;99126.22;4991933;28;20082;-75
2021/09/20 04:53:06;;;;;;;6.97;2.80;;;;;;;7.55;68.90;99119.16;4993231;28;20423;-75
2021/09/20 04:55:32;;;;;;;7.55;2.85;;;;;;;7.52;68.96;99123.22;4974526;28;20050;-77
2021/09/20 04:58:03;;;;;;;6.57;2.58;;;;;;;7.42;69.39;99106.91;4972429;28;20050;-76
2021/09/20 05:00:29;;;;;;;8.00;2.85;;;;;;;7.44;69.33;99119.13;4974634;28;20081;-78
2021/09/20 05:02:55;;;;;;;6.80;2.55;;;;;;;7.46;69.25;99108.78;4974920;28;20116;-77
2021/09/20 05:05:23;;;;;;;7.03;2.78;;;;;;;7.53;69.02;99113.97;4958556;28;20062;-76
2021/09/20 05:07:51;;;;;;;6.82;2.60;;;;;;;7.50;69.20;99115.34;4964238;28;20046;-76
2021/09/20 05:10:17;;;;;;;8.02;2.67;;;;;;;7.56;68.99;99105.25;4991326;28;20050;-75
2021/09/20 05:12:43;;;;;;;6.13;2.50;;;;;;;7.53;69.06;99111.25;4992273;28;20069;-76
2021/09/20 05:15:10;;;;;;;7.18;2.67;;;;;;;7.50;69.23;99118.06;4958276;28;20145;-76
2021/09/20 05:17:39;;;;;;;6.25;2.53;;;;;;;7.48;69.03;99113.97;4975958;28;20051;-78
2021/09/20 05:20:11;;;;;;;5.82;2.50;;;;;;;7.49;69.17;99121.88;4992121;28;20090;-76
2021/09/20 05:22:37;;;;;;;5.95;2.10;;;;;;;7.47;69.24;99113.16;4993862;28;20459;-78
2021/09/20 05:25:09;;;;;;;8.57;2.65;;;;;;;7.28;69.30;99104.72;4975062;28;20086;-79
2021/09/20 05:27:36;;;;;;;5.78;2.45;;;;;;;7.44;69.57;99118.34;4991991;28;20097;-78
2021/09/20 05:37:07;;;;;;;6.63;2.60;;;;;;;7.56;69.19;99121.59;4979871;28;20050;-79
2021/09/20 05:39:53;;;;;;;7.63;3.00;;;;;;;7.40;69.20;99087.31;4978523;28;20054;-79
2021/09/20 05:42:55;;;;;;;8.48;2.88;;;;;;;7.51;69.44;99127.03;4994902;28;20550;-77
2021/09/20 05:46:13;;;;;;;8.20;3.00;;;;;;;7.02;69.70;99047.56;4972205;28;20140;-78
2021/09/20 05:49:11;;;;;;;7.22;2.60;;;;;;;7.35;69.59;99086.22;4970396;28;20070;-79
2021/09/20 05:52:00;;;;;;;6.43;2.72;;;;;;;7.02;69.78;99041.31;4974852;28;20062;-78
2021/09/20 05:55:22;;;;;;;6.57;2.47;;;;;;;7.54;69.54;99118.31;4991072;28;20557;-78
2021/09/20 05:58:31;;;;;;;7.72;2.70;;;;;;;7.41;69.35;99095.19;4957320;28;20064;-78
2021/09/20 06:01:25;;;;;;;6.90;2.70;;;;;;;7.60;69.29;99111.81;4972353;28;20058;-79
2021/09/20 06:04:08;;;;;;;7.05;2.60;;;;;;;7.39;69.53;99091.94;4966988;28;20062;-77
2021/09/20 06:06:37;;;;;;;7.05;2.60;;;;;;;7.58;69.77;99126.75;4981908;28;20051;-77
2021/09/20 06:09:03;;;;;;;7.18;2.63;;;;;;;7.28;69.46;99077.53;4989404;28;20069;-77
2021/09/20 06:15:52;;;;;;;6.93;2.20;;;;;;;7.08;69.54;99040.25;4951100;28;20050;-78
2021/09/20 06:18:22;;;;;;;6.15;2.50;;;;;;;7.57;69.20;99103.38;4967914;28;20573;-73
2021/09/20 06:20:48;;;;;;;6.20;2.35;;;;;;;7.48;69.47;99106.63;4990697;28;20621;-83
2021/09/20 06:23:14;;;;;;;5.90;2.40;;;;;;;7.52;70.01;99134.09;4994628;28;20081;-76
2021/09/20 06:25:42;;;;;;;8.68;2.60;;;;;;;7.54;70.17;99131.94;4985335;28;20431;-73
2021/09/20 06:28:11;;;;;;;7.47;2.70;;;;;;;7.62;69.84;99144.19;4975996;28;20510;-76
2021/09/20 06:30:37;;;;;;;7.80;2.70;;;;;;;7.65;69.86;99127.34;4990937;28;20555;-76
2021/09/20 06:33:03;;;;;;;6.25;2.30;;;;;;;7.62;69.85;99144.19;4989566;28;20522;-76
2021/09/20 06:35:30;;;;;;;7.55;2.33;;;;;;;7.64;69.83;99129.22;4980780;28;20529;-77
2021/09/20 06:38:54;;;;;;;5.47;2.17;;;;;;;7.57;69.78;99109.66;4988304;28;20414;-75
2021/09/20 06:41:31;;;;;;;6.90;2.35;;;;;;;7.72;69.43;99143.34;4908687;29;20071;-77
2021/09/20 06:44:33;;;;;;;7.38;2.72;;;;;;;7.78;69.42;99140.38;4986626;28;20057;-76
2021/09/20 06:47:09;;;;;;;7.30;2.35;;;;;;;7.75;69.24;99134.69;4957187;28;20058;-74
2021/09/20 06:49:59;;;;;;;6.03;2.30;;;;;;;7.79;69.49;99150.16;4952360;28;20055;-76
2021/09/20 06:52:40;;;;;;;6.18;2.15;;;;;;;7.82;69.30;99142.56;4940191;29;20390;-76
2021/09/20 06:55:15;;;;;;;5.13;2.05;;;;;;;7.80;69.24;99162.72;4917027;29;20142;-76
2021/09/20 06:57:49;;;;;;;7.03;2.33;;;;;;;7.79;69.33;99155.59;4949534;29;20595;-75
2021/09/20 07:00:36;;;;;;;7.43;2.38;;;;;;;7.74;69.65;99152.91;4934064;28;20063;-75
2021/09/20 07:03:26;;;;;;;6.43;2.17;;;;;;;7.79;69.35;99152.09;4936020;29;20110;-75
2021/09/20 07:06:00;;;;;;;6.88;2.53;;;;;;;7.75;69.60;99156.44;4884989;29;20147;-76
2021/09/20 07:09:15;;;;;;;5.50;2.17;;;;;;;7.75;69.68;99153.72;4872676;29;20060;-76
2021/09/20 07:11:49;;;;;;;4.85;2.00;;;;;;;7.64;70.01;99142.81;4869812;29;20063;-80
2021/09/20 07:14:49;;;;;;;5.75;2.10;;;;;;;7.74;69.66;99144.72;4891852;29;20525;-81
2021/09/20 07:17:23;;;;;;;4.93;2.22;;;;;;;7.74;69.78;99143.94;4861536;29;20606;-81
2021/09/20 07:20:09;;;;;;;5.05;1.88;;;;;;;7.70;70.01;99140.94;4874836;29;20045;-80
2021/09/20 07:22:40;;;;;;;8.15;2.33;;;;;;;7.75;69.85;99132.75;4878515;29;20064;-80
2021/09/20 07:25:20;;;;;;;7.07;2.40;;;;;;;7.72;69.96;99127.84;4878121;29;20053;-81
2021/09/20 07:28:00;;;;;;;6.22;2.30;;;;;;;7.73;70.07;99139.56;4902406;29;20060;-81
2021/09/20 07:30:35;;;;;;;5.82;2.17;;;;;;;7.66;69.93;99116.16;4913857;29;20070;-81
2021/09/20 07:33:11;;;;;;;5.97;2.30;;;;;;;7.74;70.02;99122.16;4915727;29;20055;-80
2021/09/20 07:35:39;;;;;;;5.53;2.30;;;;;;;7.78;69.92;99142.28;4904661;29;20056;-80
2021/09/20 07:38:06;;;;;;;6.13;2.30;;;;;;;7.77;70.02;99138.72;4991845;28;20055;-79
2021/09/20 07:40:34;;;;;;;8.05;3.30;;;;;;;7.59;70.52;99134.66;4978658;28;20046;-80
2021/09/20 07:43:01;;;;;;;9.10;3.92;;;;;;;7.62;70.77;99136.84;4992909;28;20042;-81
2021/09/20 07:45:28;;;;;;;6.07;2.30;;;;;;;7.63;70.85;99141.19;4974835;28;20038;-80
2021/09/20 07:47:54;;;;;;;7.97;2.63;;;;;;;7.67;70.67;99122.44;4996681;28;20149;-81
2021/09/20 07:50:22;;;;;;;5.90;2.08;;;;;;;7.66;70.80;99137.94;4991342;28;20051;-81
2021/09/20 07:52:49;;;;;;;7.40;2.20;;;;;;;7.74;70.71;99152.09;4988858;28;20419;-81
2021/09/20 07:55:18;;;;;;;6.78;2.33;;;;;;;7.72;70.34;99136.03;4999974;28;20054;-82
2021/09/20 07:57:45;;;;;;;6.15;2.33;;;;;;;7.82;70.26;99137.94;4994054;28;20146;-81
2021/09/20 08:00:13;;;;;;;5.53;2.15;;;;;;;7.84;70.23;99140.38;4991287;28;20502;-81
2021/09/20 08:02:39;;;;;;;7.78;2.30;;;;;;;7.86;70.55;99144.44;4997181;28;20061;-82
2021/09/20 08:05:06;;;;;;;8.35;2.88;;;;;;;7.86;70.10;99146.38;4976285;28;20055;-83
2021/09/20 08:07:32;;;;;;;6.38;2.00;;;;;;;7.63;70.79;99113.97;4993638;28;20050;-82
2021/09/20 08:09:58;;;;;;;7.63;2.35;;;;;;;7.80;70.63;99138.22;4997305;28;20145;-81
2021/09/20 08:12:24;;;;;;;6.70;2.20;;;;;;;7.84;70.52;99138.47;4995848;28;20145;-82
2021/09/20 08:14:52;;;;;;;7.07;2.20;;;;;;;7.89;70.50;99143.94;5007724;28;20689;-79
2021/09/20 08:17:18;;;;;;;5.47;2.05;;;;;;;7.86;70.51;99124.59;4997862;28;20058;-80
2021/09/20 08:19:44;;;;;;;6.53;2.10;;;;;;;7.82;70.51;99134.41;4959697;28;20069;-81
2021/09/20 08:22:11;;;;;;;5.50;2.00;;;;;;;7.86;70.34;99138.19;4975884;28;20101;-81
2021/09/20 08:24:37;;;;;;;5.10;1.95;;;;;;;7.90;70.20;99142.00;4958799;28;20065;-79
2021/09/20 08:27:04;;;;;;;5.28;2.00;;;;;;;7.83;70.31;99134.13;4976718;28;20217;-80
2021/09/20 08:29:33;;;;;;;5.85;2.15;;;;;;;7.76;70.64;99120.78;4992209;28;20066;-80
2021/09/20 08:32:01;;;;;;;5.78;2.30;;;;;;;7.86;70.38;99124.59;4974525;28;20070;-80
2021/09/20 08:34:27;;;;;;;5.63;2.03;;;;;;;7.87;70.52;99121.59;4979087;28;20053;-81
2021/09/20 08:36:52;;;;;;;5.93;2.25;;;;;;;7.86;70.50;99132.75;4975088;28;20055;-82
2021/09/20 08:39:20;;;;;;;3.85;1.77;;;;;;;7.89;70.60;99135.75;4975066;28;20067;-79
2021/09/20 08:41:46;;;;;;;5.25;2.05;;;;;;;7.79;70.96;99127.59;4991028;28;20058;-80
2021/09/20 08:44:12;;;;;;;5.10;1.98;;;;;;;7.88;70.97;99136.03;4959426;28;20141;-78
2021/09/20 08:46:39;;;;;;;7.22;1.90;;;;;;;7.89;71.06;99134.94;4958631;28;20205;-77
2021/09/20 08:49:07;;;;;;;4.40;1.73;;;;;;;7.86;70.96;99132.75;4959634;28;20525;-80
2021/09/20 08:51:33;;;;;;;6.20;2.13;;;;;;;7.92;70.82;99128.94;4992740;28;20058;-78
2021/09/20 08:54:02;;;;;;;4.15;1.65;;;;;;;7.91;70.76;99122.69;4972702;28;20507;-77
2021/09/20 08:56:28;;;;;;;5.65;2.10;;;;;;;7.88;71.12;99127.84;4957386;28;20057;-78
2021/09/20 08:58:54;;;;;;;11.23;2.40;;;;;;;7.88;70.92;99120.53;4993442;28;20054;-79
2021/09/20 09:01:20;;;;;;;6.10;1.95;;;;;;;7.84;70.99;99124.06;4958216;28;20141;-79
2021/09/20 09:03:46;;;;;;;6.40;2.25;;;;;;;7.89;71.21;99122.16;4960085;28;20411;-80
2021/09/20 09:06:28;;;;;;;7.38;2.58;;;;;;;7.99;70.73;99143.09;4972973;28;20057;-81
2021/09/20 09:08:55;;;;;;;6.75;2.47;;;;;;;7.92;70.98;99129.75;4992361;28;20551;-80
2021/09/20 09:11:27;;;;;;;7.15;2.42;;;;;;;8.00;70.69;99131.13;4974404;28;20455;-81
2021/09/20 09:13:53;;;;;;;7.38;2.33;;;;;;;8.03;70.83;99132.44;4969083;28;20055;-80
2021/09/20 09:16:22;;;;;;;5.93;2.10;;;;;;;7.99;70.67;99121.31;4974180;28;20064;-80
2021/09/20 09:19:06;;;;;;;6.60;2.75;;;;;;;8.08;70.62;99143.34;4943922;28;20522;-80
2021/09/20 09:21:36;;;;;;;7.10;2.65;;;;;;;7.98;70.79;99138.75;4940102;28;20057;-82
2021/09/20 09:24:05;;;;;;;4.68;1.90;;;;;;;8.02;70.88;99130.81;4956842;28;20137;-79
2021/09/20 09:26:31;;;;;;;7.30;2.60;;;;;;;7.98;71.00;99138.75;4970208;28;20113;-80
2021/09/20 09:29:07;;;;;;;6.55;2.40;;;;;;;8.03;70.88;99135.19;4973596;28;20412;-80
2021/09/20 09:31:34;;;;;;;6.20;2.10;;;;;;;7.95;71.15;99126.50;4972914;28;20058;-78
2021/09/20 09:34:15;;;;;;;10.13;1.80;;;;;;;8.01;71.17;99140.09;4992026;28;20056;-80
2021/09/20 09:36:42;;;;;;;9.65;2.10;;;;;;;8.04;70.80;99126.75;4982297;28;20066;-80
2021/09/20 09:39:09;;;;;;;5.75;2.00;;;;;;;8.04;71.01;99137.63;4959585;28;20062;-80
2021/09/20 09:41:37;;;;;;;4.28;1.67;;;;;;;8.05;70.99;99133.81;4974563;28;20054;-79
2021/09/20 09:44:05;;;;;;;6.78;1.83;;;;;;;8.09;71.04;99123.22;4973998;28;20507;-80
2021/09/20 09:46:37;;;;;;;19.20;4.82;;;;;;;8.11;70.74;99112.03;4975145;28;20065;-80
2021/09/20 09:49:11;;;;;;;4.97;1.90;;;;;;;8.07;71.11;99125.41;4989764;28;20054;-79
2021/09/20 09:52:11;;;;;;;6.03;1.85;;;;;;;8.00;71.29;99130.28;4961046;28;20089;-79
2021/09/20 09:54:42;;;;;;;5.72;2.03;;;;;;;7.89;71.48;99111.25;4989504;28;20057;-80
2021/09/20 09:57:14;;;;;;;4.43;1.88;;;;;;;7.97;71.28;99119.94;4958611;28;20054;-79
2021/09/20 09:59:40;;;;;;;4.88;1.90;;;;;;;8.08;71.01;99121.56;4994061;28;20399;-79
2021/09/20 10:02:19;;;;;;;7.57;1.98;;;;;;;8.11;71.01;99141.97;4990424;28;20050;-78
2021/09/20 10:04:51;;;;;;;5.60;1.52;;;;;;;8.18;70.78;99128.91;4974549;28;20072;-79
2021/09/20 10:07:23;;;;;;;5.13;1.83;;;;;;;8.15;70.98;99126.75;4987627;28;20422;-79
2021/09/20 10:09:51;;;;;;;3.78;1.77;;;;;;;8.15;71.24;99129.47;4970109;28;20058;-79
2021/09/20 10:12:24;;;;;;;5.35;1.80;;;;;;;8.13;70.89;99118.84;4973284;28;20047;-79
2021/09/20 10:14:52;;;;;;;5.50;2.03;;;;;;;8.15;71.26;99133.00;4971469;28;20520;-79
2021/09/20 10:17:21;;;;;;;4.50;1.80;;;;;;;8.20;71.25;99132.16;4979822;28;20058;-82
2021/09/20 10:19:47;;;;;;;5.43;1.80;;;;;;;8.19;71.03;99125.88;4990168;28;20201;-83
2021/09/20 10:22:18;;;;;;;5.97;1.90;;;;;;;8.14;71.16;99127.84;4989066;28;20105;-83
2021/09/20 10:24:48;;;;;;;4.55;1.77;;;;;;;8.04;71.73;99129.47;4972470;28;20058;-75
2021/09/20 10:27:19;;;;;;;6.13;1.95;;;;;;;8.08;71.77;99132.47;4989431;28;20050;-74
2021/09/20 10:29:48;;;;;;;5.78;1.90;;;;;;;8.11;71.68;99118.31;4974481;28;20074;-74
2021/09/20 10:32:15;;;;;;;4.85;1.88;;;;;;;8.19;71.46;99127.81;4973152;28;21394;-76
2021/09/20 10:34:41;;;;;;;6.28;2.10;;;;;;;8.16;71.44;99125.66;4973285;28;20149;-76
2021/09/20 10:37:10;;;;;;;5.93;2.33;;;;;;;8.21;71.15;99118.28;4988688;28;20149;-77
2021/09/20 10:39:48;;;;;;;6.95;2.55;;;;;;;8.22;71.25;99135.44;4974315;28;20454;-75
2021/09/20 10:43:03;;;;;;;5.80;1.83;;;;;;;8.22;71.42;99130.81;4954697;28;20059;-76
2021/09/20 10:45:49;;;;;;;5.93;2.08;;;;;;;8.16;71.65;99126.44;4901529;29;20500;-76
2021/09/20 10:48:41;;;;;;;5.07;1.90;;;;;;;8.28;71.41;99137.06;4907479;29;20539;-75
2021/09/20 10:51:30;;;;;;;6.88;2.38;;;;;;;8.29;71.26;99129.69;4945712;28;20061;-76
2021/09/20 10:54:20;;;;;;;4.88;1.80;;;;;;;8.26;71.52;99138.44;4974008;28;20062;-75
2021/09/20 10:56:49;;;;;;;5.72;2.03;;;;;;;8.29;71.40;99125.09;4988906;28;20060;-76
2021/09/20 10:59:26;;;;;;;4.90;1.83;;;;;;;8.29;71.40;99122.34;4972991;28;20069;-75
2021/09/20 11:02:06;;;;;;;5.57;2.00;;;;;;;8.32;71.37;99132.69;4971399;28;20536;-75
2021/09/20 11:04:35;;;;;;;5.53;2.30;;;;;;;8.33;71.35;99131.59;4974885;28;20050;-75
2021/09/20 11:07:12;;;;;;;5.13;1.90;;;;;;;8.22;71.75;99116.38;4957060;28;20082;-76
2021/09/20 11:09:42;;;;;;;5.70;2.10;;;;;;;8.29;71.37;99130.53;4993633;28;20062;-76
2021/09/20 11:12:16;;;;;;;5.63;1.90;;;;;;;8.24;71.60;99127.78;4977946;28;20515;-75
2021/09/20 11:15:01;;;;;;;4.97;1.80;;;;;;;8.21;71.62;99122.91;4993929;28;20549;-76
2021/09/20 11:17:44;;;;;;;5.07;1.98;;;;;;;8.23;72.01;99140.63;4970212;28;20054;-75
2021/09/20 11:20:29;;;;;;;4.75;1.95;;;;;;;8.28;71.88;99133.50;4969878;28;20145;-74
2021/09/20 11:23:17;;;;;;;4.70;1.85;;;;;;;8.30;71.76;99131.31;4993734;28;20058;-75
2021/09/20 11:26:01;;;;;;;5.45;1.80;;;;;;;8.18;72.14;99112.56;4977635;28;20092;-75
2021/09/20 11:28:31;;;;;;;;;;;;;;;8.28;72.06;99131.63;4975360;28;20062;-76
2021/09/20 11:30:57;;;;;;;4.55;1.85;;;;;;;8.14;71.78;99114.22;4993657;28;20287;-75
2021/09/20 11:33:38;;;;;;;4.20;1.70;;;;;;;8.28;71.92;99138.97;4974846;28;20057;-76
2021/09/20 11:36:28;;;;;;;5.72;2.08;;;;;;;8.25;71.84;99139.53;4975950;28;20046;-76
2021/09/20 11:39:14;;;;;;;6.30;1.80;;;;;;;8.17;72.13;99130.00;4977997;28;20523;-75
2021/09/20 11:41:42;;;;;;;5.05;2.08;;;;;;;8.22;72.21;99129.97;4975556;28;20137;-75
2021/09/20 11:44:08;;;;;;;5.75;1.90;;;;;;;8.22;72.35;99130.81;4956171;28;20042;-75
2021/09/20 11:46:36;;;;;;;5.85;2.00;;;;;;;8.26;72.30;99132.97;4992610;28;20066;-76
2021/09/20 11:49:09;;;;;;;7.13;1.90;;;;;;;8.21;72.52;99139.25;4991806;28;20141;-76
2021/09/20 11:51:36;;;;;;;5.03;1.83;;;;;;;8.22;72.76;99135.44;4961166;28;20146;-75
2021/09/20 11:54:06;;;;;;;6.90;2.13;;;;;;;8.17;72.86;99132.72;4974487;28;20138;-76
2021/09/20 11:56:45;;;;;;;4.95;1.85;;;;;;;7.88;72.71;99093.31;4983252;28;20105;-75
2021/09/20 11:59:11;;;;;;;8.02;2.40;;;;;;;8.21;72.71;99136.53;4985684;28;20142;-76
2021/09/20 12:01:39;;;;;;;7.25;2.53;;;;;;;8.09;72.59;99118.56;4981574;28;20202;-74
2021/09/20 12:04:06;;;;;;;6.72;2.30;;;;;;;8.17;72.86;99130.00;4991927;28;20416;-74
2021/09/20 12:06:32;;;;;;;5.63;2.03;;;;;;;8.21;72.77;99131.91;4990970;28;20058;-74
2021/09/20 12:09:00;;;;;;;6.35;2.28;;;;;;;8.25;72.83;99143.03;4990078;28;20053;-74
2021/09/20 12:11:28;;;;;;;6.00;2.20;;;;;;;8.23;73.00;99131.63;4976023;28;20053;-74
2021/09/20 12:13:54;;;;;;;6.68;1.90;;;;;;;8.23;72.86;99137.06;4976801;28;20062;-74
2021/09/20 12:16:21;;;;;;;4.75;1.83;;;;;;;8.23;73.02;99134.34;4973305;28;20054;-75
2021/09/20 12:18:47;;;;;;;5.75;2.13;;;;;;;8.28;72.82;99131.63;4996424;28;20050;-75
2021/09/20 12:21:18;;;;;;;5.70;2.15;;;;;;;8.21;72.67;99121.00;4992065;28;20056;-75
2021/09/20 12:23:52;;;;;;;5.65;2.13;;;;;;;8.31;72.81;99131.06;4944457;28;20058;-74